sensor_id;sensor_type;location;lat;lon;timestamp;P1;durP1;ratioP1;P2;durP2;ratioP2
54145;SDS011;65909;49.422;7.738;2023-06-26T00:00:14;7.60;;;5.00;;
54145;SDS011;65909;49.422;7.738;2023-06-26T00:02:40;6.75;;;4.78;;
54145;SDS011;65909;49.422;7.738;2023-06-26T00:05:05;7.53;;;5.15;;
54145;SDS011;65909;49.422;7.738;2023-06-26T00:07:31;10.43;;;6.75;;
54145;SDS011;65909;49.422;7.738;2023-06-26T00:09:59;7.80;;;5.13;;
54145;SDS011;65909;49.422;7.738;2023-06-26T00:12:24;7.35;;;5.35;;
54145;SDS011;65909;49.422;7.738;2023-06-26T00:14:50;8.10;;;5.22;;
54145;SDS011;65909;49.422;7.738;2023-06-26T00:17:15;6.40;;;5.10;;
54145;SDS011;65909;49.422;7.738;2023-06-26T00:19:41;6.38;;;4.40;;
54145;SDS011;65909;49.422;7.738;2023-06-26T00:22:06;6.43;;;5.00;;
54145;SDS011;65909;49.422;7.738;2023-06-26T00:24:31;8.93;;;5.15;;
54145;SDS011;65909;49.422;7.738;2023-06-26T00:26:57;5.95;;;5.00;;
54145;SDS011;65909;49.422;7.738;2023-06-26T00:29:23;6.97;;;4.63;;
54145;SDS011;65909;49.422;7.738;2023-06-26T00:35:10;5.50;;;4.30;;
54145;SDS011;65909;49.422;7.738;2023-06-26T00:37:35;7.18;;;5.40;;
54145;SDS011;65909;49.422;7.738;2023-06-26T00:40:01;6.65;;;5.13;;
54145;SDS011;65909;49.422;7.738;2023-06-26T00:42:26;7.60;;;4.97;;
54145;SDS011;65909;49.422;7.738;2023-06-26T00:44:52;6.30;;;4.75;;
54145;SDS011;65909;49.422;7.738;2023-06-26T00:47:17;6.88;;;4.70;;
54145;SDS011;65909;49.422;7.738;2023-06-26T00:49:43;6.18;;;4.30;;
54145;SDS011;65909;49.422;7.738;2023-06-26T00:52:09;7.18;;;5.20;;
54145;SDS011;65909;49.422;7.738;2023-06-26T00:54:34;7.57;;;4.95;;
54145;SDS011;65909;49.422;7.738;2023-06-26T00:57:00;6.57;;;4.75;;
54145;SDS011;65909;49.422;7.738;2023-06-26T00:59:25;6.28;;;4.88;;
54145;SDS011;65909;49.422;7.738;2023-06-26T01:04:36;10.50;;;5.35;;
54145;SDS011;65909;49.422;7.738;2023-06-26T01:10:23;6.07;;;4.68;;
54145;SDS011;65909;49.422;7.738;2023-06-26T01:12:49;6.18;;;4.75;;
54145;SDS011;65909;49.422;7.738;2023-06-26T01:18:33;7.93;;;4.88;;
54145;SDS011;65909;49.422;7.738;2023-06-26T01:24:35;6.45;;;5.07;;
54145;SDS011;65909;49.422;7.738;2023-06-26T01:27:03;6.75;;;4.78;;
54145;SDS011;65909;49.422;7.738;2023-06-26T01:29:30;7.38;;;5.28;;
54145;SDS011;65909;49.422;7.738;2023-06-26T01:31:57;6.43;;;4.78;;
54145;SDS011;65909;49.422;7.738;2023-06-26T01:34:23;5.97;;;4.78;;
54145;SDS011;65909;49.422;7.738;2023-06-26T01:36:49;8.35;;;5.15;;
54145;SDS011;65909;49.422;7.738;2023-06-26T01:39:15;7.25;;;5.65;;
54145;SDS011;65909;49.422;7.738;2023-06-26T01:41:42;7.22;;;5.22;;
54145;SDS011;65909;49.422;7.738;2023-06-26T01:47:01;9.30;;;6.22;;
54145;SDS011;65909;49.422;7.738;2023-06-26T01:49:40;8.73;;;5.57;;
54145;SDS011;65909;49.422;7.738;2023-06-26T01:55:05;6.95;;;5.32;;
54145;SDS011;65909;49.422;7.738;2023-06-26T01:57:37;7.90;;;5.60;;
54145;SDS011;65909;49.422;7.738;2023-06-26T02:00:04;8.60;;;5.47;;
54145;SDS011;65909;49.422;7.738;2023-06-26T02:02:33;8.02;;;5.60;;
54145;SDS011;65909;49.422;7.738;2023-06-26T02:04:59;9.10;;;5.78;;
54145;SDS011;65909;49.422;7.738;2023-06-26T02:07:24;8.20;;;5.35;;
54145;SDS011;65909;49.422;7.738;2023-06-26T02:09:50;9.00;;;6.00;;
54145;SDS011;65909;49.422;7.738;2023-06-26T02:12:16;8.00;;;6.30;;
54145;SDS011;65909;49.422;7.738;2023-06-26T02:14:41;7.28;;;5.40;;
54145;SDS011;65909;49.422;7.738;2023-06-26T02:17:07;9.90;;;5.40;;
54145;SDS011;65909;49.422;7.738;2023-06-26T02:19:33;8.15;;;6.10;;
54145;SDS011;65909;49.422;7.738;2023-06-26T02:21:59;7.63;;;5.22;;
54145;SDS011;65909;49.422;7.738;2023-06-26T02:24:24;8.02;;;5.43;;
54145;SDS011;65909;49.422;7.738;2023-06-26T02:26:50;9.50;;;5.63;;
54145;SDS011;65909;49.422;7.738;2023-06-26T02:29:15;7.85;;;5.80;;
54145;SDS011;65909;49.422;7.738;2023-06-26T02:31:40;8.55;;;5.80;;
54145;SDS011;65909;49.422;7.738;2023-06-26T02:34:06;11.10;;;7.22;;
54145;SDS011;65909;49.422;7.738;2023-06-26T02:36:31;7.95;;;6.00;;
54145;SDS011;65909;49.422;7.738;2023-06-26T02:38:57;8.80;;;5.50;;
54145;SDS011;65909;49.422;7.738;2023-06-26T02:41:22;8.70;;;5.45;;
54145;SDS011;65909;49.422;7.738;2023-06-26T02:43:47;7.55;;;5.50;;
54145;SDS011;65909;49.422;7.738;2023-06-26T02:46:13;7.00;;;5.47;;
54145;SDS011;65909;49.422;7.738;2023-06-26T02:48:38;8.18;;;5.85;;
54145;SDS011;65909;49.422;7.738;2023-06-26T02:51:03;8.23;;;5.40;;
54145;SDS011;65909;49.422;7.738;2023-06-26T02:56:26;12.07;;;5.40;;
54145;SDS011;65909;49.422;7.738;2023-06-26T02:58:55;8.75;;;5.20;;
54145;SDS011;65909;49.422;7.738;2023-06-26T03:01:21;9.57;;;5.10;;
54145;SDS011;65909;49.422;7.738;2023-06-26T03:03:47;6.35;;;5.40;;
54145;SDS011;65909;49.422;7.738;2023-06-26T03:09:34;9.18;;;5.18;;
54145;SDS011;65909;49.422;7.738;2023-06-26T03:12:00;9.52;;;6.30;;
54145;SDS011;65909;49.422;7.738;2023-06-26T03:14:25;6.78;;;4.97;;
54145;SDS011;65909;49.422;7.738;2023-06-26T03:16:52;10.15;;;6.07;;
54145;SDS011;65909;49.422;7.738;2023-06-26T03:19:17;8.00;;;4.72;;
54145;SDS011;65909;49.422;7.738;2023-06-26T03:21:43;8.45;;;6.28;;
54145;SDS011;65909;49.422;7.738;2023-06-26T03:24:08;8.57;;;6.32;;
54145;SDS011;65909;49.422;7.738;2023-06-26T03:26:34;8.48;;;5.70;;
54145;SDS011;65909;49.422;7.738;2023-06-26T03:28:59;10.50;;;5.30;;
54145;SDS011;65909;49.422;7.738;2023-06-26T03:31:24;10.43;;;5.43;;
54145;SDS011;65909;49.422;7.738;2023-06-26T03:33:50;8.75;;;6.00;;
54145;SDS011;65909;49.422;7.738;2023-06-26T03:36:15;9.52;;;5.95;;
54145;SDS011;65909;49.422;7.738;2023-06-26T03:38:41;8.27;;;5.45;;
54145;SDS011;65909;49.422;7.738;2023-06-26T03:41:06;9.07;;;5.75;;
54145;SDS011;65909;49.422;7.738;2023-06-26T03:43:31;8.40;;;6.10;;
54145;SDS011;65909;49.422;7.738;2023-06-26T03:45:57;8.43;;;5.85;;
54145;SDS011;65909;49.422;7.738;2023-06-26T03:48:22;10.10;;;6.63;;
54145;SDS011;65909;49.422;7.738;2023-06-26T03:50:48;12.10;;;5.50;;
54145;SDS011;65909;49.422;7.738;2023-06-26T03:53:14;10.90;;;6.20;;
54145;SDS011;65909;49.422;7.738;2023-06-26T03:55:39;11.77;;;5.57;;
54145;SDS011;65909;49.422;7.738;2023-06-26T03:58:04;9.93;;;6.03;;
54145;SDS011;65909;49.422;7.738;2023-06-26T04:00:30;9.93;;;5.38;;
54145;SDS011;65909;49.422;7.738;2023-06-26T04:02:55;7.88;;;6.03;;
54145;SDS011;65909;49.422;7.738;2023-06-26T04:05:22;8.48;;;5.25;;
54145;SDS011;65909;49.422;7.738;2023-06-26T04:07:51;9.75;;;5.50;;
54145;SDS011;65909;49.422;7.738;2023-06-26T04:10:17;9.57;;;5.95;;
54145;SDS011;65909;49.422;7.738;2023-06-26T04:12:42;8.43;;;5.70;;
54145;SDS011;65909;49.422;7.738;2023-06-26T04:15:08;8.63;;;5.70;;
54145;SDS011;65909;49.422;7.738;2023-06-26T04:17:33;12.20;;;6.38;;
54145;SDS011;65909;49.422;7.738;2023-06-26T04:19:59;9.65;;;5.50;;
54145;SDS011;65909;49.422;7.738;2023-06-26T04:22:24;11.07;;;6.05;;
54145;SDS011;65909;49.422;7.738;2023-06-26T04:24:50;8.68;;;6.10;;
54145;SDS011;65909;49.422;7.738;2023-06-26T04:27:16;6.20;;;5.20;;
54145;SDS011;65909;49.422;7.738;2023-06-26T04:29:42;7.90;;;5.53;;
54145;SDS011;65909;49.422;7.738;2023-06-26T04:32:07;7.47;;;5.68;;
54145;SDS011;65909;49.422;7.738;2023-06-26T04:34:33;7.63;;;4.53;;
54145;SDS011;65909;49.422;7.738;2023-06-26T04:37:00;7.93;;;5.70;;
54145;SDS011;65909;49.422;7.738;2023-06-26T04:39:25;7.70;;;5.50;;
54145;SDS011;65909;49.422;7.738;2023-06-26T04:41:50;7.65;;;5.10;;
54145;SDS011;65909;49.422;7.738;2023-06-26T04:44:16;8.40;;;5.55;;
54145;SDS011;65909;49.422;7.738;2023-06-26T04:46:42;8.73;;;5.00;;
54145;SDS011;65909;49.422;7.738;2023-06-26T04:49:08;6.93;;;5.10;;
54145;SDS011;65909;49.422;7.738;2023-06-26T04:54:35;7.72;;;5.47;;
54145;SDS011;65909;49.422;7.738;2023-06-26T04:57:00;6.80;;;5.07;;
54145;SDS011;65909;49.422;7.738;2023-06-26T04:59:41;6.93;;;5.47;;
54145;SDS011;65909;49.422;7.738;2023-06-26T05:02:07;11.48;;;6.40;;
54145;SDS011;65909;49.422;7.738;2023-06-26T05:04:32;7.78;;;5.45;;
54145;SDS011;65909;49.422;7.738;2023-06-26T05:06:57;10.70;;;6.13;;
54145;SDS011;65909;49.422;7.738;2023-06-26T05:09:23;8.30;;;6.55;;
54145;SDS011;65909;49.422;7.738;2023-06-26T05:15:10;10.05;;;6.55;;
54145;SDS011;65909;49.422;7.738;2023-06-26T05:17:35;9.23;;;5.95;;
54145;SDS011;65909;49.422;7.738;2023-06-26T05:20:01;10.63;;;7.75;;
54145;SDS011;65909;49.422;7.738;2023-06-26T05:22:26;9.48;;;5.93;;
54145;SDS011;65909;49.422;7.738;2023-06-26T05:24:52;8.27;;;6.28;;
54145;SDS011;65909;49.422;7.738;2023-06-26T05:27:19;8.82;;;6.43;;
54145;SDS011;65909;49.422;7.738;2023-06-26T05:29:47;9.43;;;6.40;;
54145;SDS011;65909;49.422;7.738;2023-06-26T05:32:13;8.23;;;6.25;;
54145;SDS011;65909;49.422;7.738;2023-06-26T05:34:47;8.10;;;6.45;;
54145;SDS011;65909;49.422;7.738;2023-06-26T05:37:14;8.27;;;6.35;;
54145;SDS011;65909;49.422;7.738;2023-06-26T05:43:04;9.27;;;6.88;;
54145;SDS011;65909;49.422;7.738;2023-06-26T05:45:30;9.85;;;6.80;;
54145;SDS011;65909;49.422;7.738;2023-06-26T05:47:55;10.50;;;6.82;;
54145;SDS011;65909;49.422;7.738;2023-06-26T05:50:21;8.98;;;6.68;;
54145;SDS011;65909;49.422;7.738;2023-06-26T05:52:47;9.38;;;6.72;;
54145;SDS011;65909;49.422;7.738;2023-06-26T05:55:12;7.78;;;6.00;;
54145;SDS011;65909;49.422;7.738;2023-06-26T05:57:38;9.38;;;6.82;;
54145;SDS011;65909;49.422;7.738;2023-06-26T06:00:05;13.38;;;6.68;;
54145;SDS011;65909;49.422;7.738;2023-06-26T06:02:46;9.05;;;6.80;;
54145;SDS011;65909;49.422;7.738;2023-06-26T06:05:11;10.02;;;6.57;;
54145;SDS011;65909;49.422;7.738;2023-06-26T06:07:49;10.15;;;6.40;;
54145;SDS011;65909;49.422;7.738;2023-06-26T06:10:15;8.63;;;6.40;;
54145;SDS011;65909;49.422;7.738;2023-06-26T06:12:40;9.38;;;6.90;;
54145;SDS011;65909;49.422;7.738;2023-06-26T06:15:06;9.40;;;6.65;;
54145;SDS011;65909;49.422;7.738;2023-06-26T06:17:32;10.48;;;6.57;;
54145;SDS011;65909;49.422;7.738;2023-06-26T06:19:57;10.52;;;7.10;;
54145;SDS011;65909;49.422;7.738;2023-06-26T06:25:44;9.23;;;6.72;;
54145;SDS011;65909;49.422;7.738;2023-06-26T06:28:10;9.85;;;6.43;;
54145;SDS011;65909;49.422;7.738;2023-06-26T06:30:35;9.50;;;6.75;;
54145;SDS011;65909;49.422;7.738;2023-06-26T06:33:01;10.02;;;6.97;;
54145;SDS011;65909;49.422;7.738;2023-06-26T06:35:26;9.43;;;7.15;;
54145;SDS011;65909;49.422;7.738;2023-06-26T06:37:52;9.18;;;6.53;;
54145;SDS011;65909;49.422;7.738;2023-06-26T06:40:17;11.50;;;6.70;;
54145;SDS011;65909;49.422;7.738;2023-06-26T06:42:42;8.52;;;6.28;;
54145;SDS011;65909;49.422;7.738;2023-06-26T06:45:08;8.13;;;6.00;;
54145;SDS011;65909;49.422;7.738;2023-06-26T06:47:34;7.93;;;5.88;;
54145;SDS011;65909;49.422;7.738;2023-06-26T06:50:00;8.10;;;5.50;;
54145;SDS011;65909;49.422;7.738;2023-06-26T06:52:38;8.93;;;5.15;;
54145;SDS011;65909;49.422;7.738;2023-06-26T06:55:05;10.88;;;5.50;;
54145;SDS011;65909;49.422;7.738;2023-06-26T07:00:54;5.63;;;4.95;;
54145;SDS011;65909;49.422;7.738;2023-06-26T07:03:20;7.88;;;5.20;;
54145;SDS011;65909;49.422;7.738;2023-06-26T07:05:46;8.63;;;5.70;;
54145;SDS011;65909;49.422;7.738;2023-06-26T07:08:12;7.95;;;5.63;;
54145;SDS011;65909;49.422;7.738;2023-06-26T07:10:38;8.57;;;5.32;;
54145;SDS011;65909;49.422;7.738;2023-06-26T07:13:03;10.23;;;6.07;;
54145;SDS011;65909;49.422;7.738;2023-06-26T07:15:29;7.60;;;6.20;;
54145;SDS011;65909;49.422;7.738;2023-06-26T07:17:54;6.90;;;5.53;;
54145;SDS011;65909;49.422;7.738;2023-06-26T07:20:19;10.02;;;5.70;;
54145;SDS011;65909;49.422;7.738;2023-06-26T07:22:45;7.90;;;5.68;;
54145;SDS011;65909;49.422;7.738;2023-06-26T07:25:11;10.65;;;5.57;;
54145;SDS011;65909;49.422;7.738;2023-06-26T07:27:37;6.10;;;5.50;;
54145;SDS011;65909;49.422;7.738;2023-06-26T07:30:03;5.90;;;5.25;;
54145;SDS011;65909;49.422;7.738;2023-06-26T07:32:29;6.25;;;4.72;;
54145;SDS011;65909;49.422;7.738;2023-06-26T07:34:54;7.65;;;5.55;;
54145;SDS011;65909;49.422;7.738;2023-06-26T07:37:19;7.13;;;4.85;;
54145;SDS011;65909;49.422;7.738;2023-06-26T07:42:57;9.13;;;4.95;;
54145;SDS011;65909;49.422;7.738;2023-06-26T07:45:23;5.90;;;4.30;;
54145;SDS011;65909;49.422;7.738;2023-06-26T07:47:48;7.35;;;5.20;;
54145;SDS011;65909;49.422;7.738;2023-06-26T07:50:14;5.90;;;4.82;;
54145;SDS011;65909;49.422;7.738;2023-06-26T07:52:44;4.97;;;4.05;;
54145;SDS011;65909;49.422;7.738;2023-06-26T07:55:10;5.97;;;4.72;;
54145;SDS011;65909;49.422;7.738;2023-06-26T07:57:35;6.35;;;4.63;;
54145;SDS011;65909;49.422;7.738;2023-06-26T08:00:00;7.80;;;5.25;;
54145;SDS011;65909;49.422;7.738;2023-06-26T08:02:26;5.70;;;4.45;;
54145;SDS011;65909;49.422;7.738;2023-06-26T08:04:51;6.07;;;4.88;;
54145;SDS011;65909;49.422;7.738;2023-06-26T08:07:16;7.45;;;4.72;;
54145;SDS011;65909;49.422;7.738;2023-06-26T08:09:43;6.93;;;5.05;;
54145;SDS011;65909;49.422;7.738;2023-06-26T08:12:09;5.38;;;4.60;;
54145;SDS011;65909;49.422;7.738;2023-06-26T08:17:55;6.00;;;4.68;;
54145;SDS011;65909;49.422;7.738;2023-06-26T08:20:21;6.20;;;5.15;;
54145;SDS011;65909;49.422;7.738;2023-06-26T08:22:47;6.82;;;5.00;;
54145;SDS011;65909;49.422;7.738;2023-06-26T08:25:14;6.25;;;5.07;;
54145;SDS011;65909;49.422;7.738;2023-06-26T08:30:53;5.68;;;4.63;;
54145;SDS011;65909;49.422;7.738;2023-06-26T08:33:18;8.70;;;5.15;;
54145;SDS011;65909;49.422;7.738;2023-06-26T08:38:58;7.13;;;5.37;;
54145;SDS011;65909;49.422;7.738;2023-06-26T08:41:23;6.78;;;4.70;;
54145;SDS011;65909;49.422;7.738;2023-06-26T08:43:49;6.80;;;5.28;;
54145;SDS011;65909;49.422;7.738;2023-06-26T08:46:17;7.90;;;4.50;;
54145;SDS011;65909;49.422;7.738;2023-06-26T08:48:45;6.55;;;4.88;;
54145;SDS011;65909;49.422;7.738;2023-06-26T08:51:15;7.10;;;5.13;;
54145;SDS011;65909;49.422;7.738;2023-06-26T08:53:43;6.53;;;4.97;;
54145;SDS011;65909;49.422;7.738;2023-06-26T08:56:17;5.10;;;4.60;;
54145;SDS011;65909;49.422;7.738;2023-06-26T08:58:46;6.40;;;4.82;;
54145;SDS011;65909;49.422;7.738;2023-06-26T09:01:11;7.95;;;4.97;;
54145;SDS011;65909;49.422;7.738;2023-06-26T09:06:56;6.32;;;5.15;;
54145;SDS011;65909;49.422;7.738;2023-06-26T09:09:21;6.95;;;4.50;;
54145;SDS011;65909;49.422;7.738;2023-06-26T09:11:46;5.60;;;4.53;;
54145;SDS011;65909;49.422;7.738;2023-06-26T09:14:12;6.65;;;5.07;;
54145;SDS011;65909;49.422;7.738;2023-06-26T09:20:00;7.90;;;4.97;;
54145;SDS011;65909;49.422;7.738;2023-06-26T09:22:25;7.80;;;4.70;;
54145;SDS011;65909;49.422;7.738;2023-06-26T09:27:54;9.27;;;4.60;;
54145;SDS011;65909;49.422;7.738;2023-06-26T09:30:21;5.65;;;4.93;;
54145;SDS011;65909;49.422;7.738;2023-06-26T09:32:46;7.30;;;4.88;;
54145;SDS011;65909;49.422;7.738;2023-06-26T09:35:12;5.40;;;4.70;;
54145;SDS011;65909;49.422;7.738;2023-06-26T09:37:38;6.15;;;4.40;;
54145;SDS011;65909;49.422;7.738;2023-06-26T09:40:03;5.35;;;4.25;;
54145;SDS011;65909;49.422;7.738;2023-06-26T09:42:29;5.57;;;4.35;;
54145;SDS011;65909;49.422;7.738;2023-06-26T09:44:55;6.35;;;4.40;;
54145;SDS011;65909;49.422;7.738;2023-06-26T09:47:21;6.63;;;5.13;;
54145;SDS011;65909;49.422;7.738;2023-06-26T09:49:47;9.75;;;4.20;;
54145;SDS011;65909;49.422;7.738;2023-06-26T09:52:16;5.32;;;4.40;;
54145;SDS011;65909;49.422;7.738;2023-06-26T09:54:42;6.93;;;4.60;;
54145;SDS011;65909;49.422;7.738;2023-06-26T09:57:12;5.70;;;4.40;;
54145;SDS011;65909;49.422;7.738;2023-06-26T09:59:52;5.68;;;4.93;;
54145;SDS011;65909;49.422;7.738;2023-06-26T10:02:18;5.10;;;4.20;;
54145;SDS011;65909;49.422;7.738;2023-06-26T10:04:43;7.30;;;4.30;;
54145;SDS011;65909;49.422;7.738;2023-06-26T10:07:10;5.55;;;4.07;;
54145;SDS011;65909;49.422;7.738;2023-06-26T10:09:38;5.97;;;4.25;;
54145;SDS011;65909;49.422;7.738;2023-06-26T10:12:06;4.65;;;4.10;;
54145;SDS011;65909;49.422;7.738;2023-06-26T10:14:38;6.10;;;4.03;;
54145;SDS011;65909;49.422;7.738;2023-06-26T10:17:07;4.10;;;3.67;;
54145;SDS011;65909;49.422;7.738;2023-06-26T10:19:35;5.22;;;4.13;;
54145;SDS011;65909;49.422;7.738;2023-06-26T10:22:02;6.82;;;4.28;;
54145;SDS011;65909;49.422;7.738;2023-06-26T10:24:29;5.10;;;4.05;;
54145;SDS011;65909;49.422;7.738;2023-06-26T10:30:20;4.80;;;4.20;;
54145;SDS011;65909;49.422;7.738;2023-06-26T10:32:53;6.75;;;4.00;;
54145;SDS011;65909;49.422;7.738;2023-06-26T10:35:19;7.45;;;4.00;;
54145;SDS011;65909;49.422;7.738;2023-06-26T10:37:49;6.63;;;4.97;;
54145;SDS011;65909;49.422;7.738;2023-06-26T10:40:21;6.63;;;3.95;;
54145;SDS011;65909;49.422;7.738;2023-06-26T10:42:50;4.63;;;4.10;;
54145;SDS011;65909;49.422;7.738;2023-06-26T10:45:16;5.53;;;4.07;;
54145;SDS011;65909;49.422;7.738;2023-06-26T10:51:13;5.32;;;4.22;;
54145;SDS011;65909;49.422;7.738;2023-06-26T10:53:39;5.03;;;4.13;;
54145;SDS011;65909;49.422;7.738;2023-06-26T10:56:05;5.68;;;4.07;;
54145;SDS011;65909;49.422;7.738;2023-06-26T11:04:18;5.38;;;4.00;;
54145;SDS011;65909;49.422;7.738;2023-06-26T11:06:46;7.30;;;4.25;;
54145;SDS011;65909;49.422;7.738;2023-06-26T11:09:28;5.63;;;4.30;;
54145;SDS011;65909;49.422;7.738;2023-06-26T11:14:30;5.95;;;4.50;;
54145;SDS011;65909;49.422;7.738;2023-06-26T11:16:56;7.25;;;3.90;;
54145;SDS011;65909;49.422;7.738;2023-06-26T11:19:25;8.63;;;4.28;;
54145;SDS011;65909;49.422;7.738;2023-06-26T11:21:52;6.38;;;4.43;;
54145;SDS011;65909;49.422;7.738;2023-06-26T11:24:27;5.20;;;4.07;;
54145;SDS011;65909;49.422;7.738;2023-06-26T11:26:54;5.90;;;4.20;;
54145;SDS011;65909;49.422;7.738;2023-06-26T11:29:24;5.93;;;4.22;;
54145;SDS011;65909;49.422;7.738;2023-06-26T11:31:55;7.68;;;4.00;;
54145;SDS011;65909;49.422;7.738;2023-06-26T11:34:24;4.85;;;3.90;;
54145;SDS011;65909;49.422;7.738;2023-06-26T11:36:56;8.00;;;4.20;;
54145;SDS011;65909;49.422;7.738;2023-06-26T11:39:22;7.53;;;4.03;;
54145;SDS011;65909;49.422;7.738;2023-06-26T11:41:47;4.90;;;3.72;;
54145;SDS011;65909;49.422;7.738;2023-06-26T11:44:14;4.53;;;3.80;;
54145;SDS011;65909;49.422;7.738;2023-06-26T11:46:45;6.90;;;4.05;;
54145;SDS011;65909;49.422;7.738;2023-06-26T11:49:10;4.78;;;3.80;;
54145;SDS011;65909;49.422;7.738;2023-06-26T11:54:43;5.20;;;3.60;;
54145;SDS011;65909;49.422;7.738;2023-06-26T11:57:14;5.47;;;4.00;;
54145;SDS011;65909;49.422;7.738;2023-06-26T11:59:40;5.30;;;4.13;;
54145;SDS011;65909;49.422;7.738;2023-06-26T12:02:09;5.85;;;4.03;;
54145;SDS011;65909;49.422;7.738;2023-06-26T12:04:36;5.68;;;4.15;;
54145;SDS011;65909;49.422;7.738;2023-06-26T12:07:04;7.13;;;4.03;;
54145;SDS011;65909;49.422;7.738;2023-06-26T12:09:33;6.75;;;3.60;;
54145;SDS011;65909;49.422;7.738;2023-06-26T12:12:03;4.60;;;3.88;;
54145;SDS011;65909;49.422;7.738;2023-06-26T12:14:29;6.55;;;3.85;;
54145;SDS011;65909;49.422;7.738;2023-06-26T12:16:55;8.35;;;4.43;;
54145;SDS011;65909;49.422;7.738;2023-06-26T12:19:28;8.05;;;4.60;;
54145;SDS011;65909;49.422;7.738;2023-06-26T12:21:54;5.55;;;4.00;;
54145;SDS011;65909;49.422;7.738;2023-06-26T12:24:21;6.53;;;3.58;;
54145;SDS011;65909;49.422;7.738;2023-06-26T12:26:50;6.60;;;4.18;;
54145;SDS011;65909;49.422;7.738;2023-06-26T12:29:18;6.70;;;3.80;;
54145;SDS011;65909;49.422;7.738;2023-06-26T12:31:46;5.38;;;3.63;;
54145;SDS011;65909;49.422;7.738;2023-06-26T12:34:15;4.57;;;3.47;;
54145;SDS011;65909;49.422;7.738;2023-06-26T12:36:50;8.05;;;3.83;;
54145;SDS011;65909;49.422;7.738;2023-06-26T12:39:17;6.75;;;3.80;;
54145;SDS011;65909;49.422;7.738;2023-06-26T12:41:46;7.53;;;3.75;;
54145;SDS011;65909;49.422;7.738;2023-06-26T12:44:18;6.60;;;3.83;;
54145;SDS011;65909;49.422;7.738;2023-06-26T12:46:49;7.75;;;4.00;;
54145;SDS011;65909;49.422;7.738;2023-06-26T12:49:18;4.40;;;3.60;;
54145;SDS011;65909;49.422;7.738;2023-06-26T12:51:44;7.35;;;4.07;;
54145;SDS011;65909;49.422;7.738;2023-06-26T12:54:09;6.22;;;3.78;;
54145;SDS011;65909;49.422;7.738;2023-06-26T12:56:35;5.60;;;3.72;;
54145;SDS011;65909;49.422;7.738;2023-06-26T12:59:00;7.57;;;3.55;;
54145;SDS011;65909;49.422;7.738;2023-06-26T13:01:26;5.22;;;3.90;;
54145;SDS011;65909;49.422;7.738;2023-06-26T13:03:53;6.95;;;3.85;;
54145;SDS011;65909;49.422;7.738;2023-06-26T13:06:18;5.35;;;3.83;;
54145;SDS011;65909;49.422;7.738;2023-06-26T13:11:36;6.60;;;3.78;;
54145;SDS011;65909;49.422;7.738;2023-06-26T13:14:02;5.28;;;3.25;;
54145;SDS011;65909;49.422;7.738;2023-06-26T13:16:28;6.03;;;3.33;;
54145;SDS011;65909;49.422;7.738;2023-06-26T13:18:54;6.97;;;3.47;;
54145;SDS011;65909;49.422;7.738;2023-06-26T13:21:20;4.60;;;3.13;;
54145;SDS011;65909;49.422;7.738;2023-06-26T13:23:45;7.18;;;3.70;;
54145;SDS011;65909;49.422;7.738;2023-06-26T13:26:11;6.60;;;3.83;;
54145;SDS011;65909;49.422;7.738;2023-06-26T13:31:58;4.65;;;3.08;;
54145;SDS011;65909;49.422;7.738;2023-06-26T13:34:28;7.20;;;3.42;;
54145;SDS011;65909;49.422;7.738;2023-06-26T13:37:08;5.05;;;3.30;;
54145;SDS011;65909;49.422;7.738;2023-06-26T13:39:33;6.63;;;3.35;;
54145;SDS011;65909;49.422;7.738;2023-06-26T13:41:58;5.40;;;2.70;;
54145;SDS011;65909;49.422;7.738;2023-06-26T13:44:25;4.18;;;2.75;;
54145;SDS011;65909;49.422;7.738;2023-06-26T13:46:50;6.32;;;2.63;;
54145;SDS011;65909;49.422;7.738;2023-06-26T13:49:16;3.92;;;2.80;;
54145;SDS011;65909;49.422;7.738;2023-06-26T13:51:59;5.20;;;3.15;;
54145;SDS011;65909;49.422;7.738;2023-06-26T13:54:25;5.03;;;2.70;;
54145;SDS011;65909;49.422;7.738;2023-06-26T13:56:50;7.28;;;2.50;;
54145;SDS011;65909;49.422;7.738;2023-06-26T13:59:16;4.07;;;2.33;;
54145;SDS011;65909;49.422;7.738;2023-06-26T14:01:43;5.22;;;2.63;;
54145;SDS011;65909;49.422;7.738;2023-06-26T14:07:30;5.75;;;2.53;;
54145;SDS011;65909;49.422;7.738;2023-06-26T14:09:56;7.18;;;2.58;;
54145;SDS011;65909;49.422;7.738;2023-06-26T14:12:21;6.28;;;1.92;;
54145;SDS011;65909;49.422;7.738;2023-06-26T14:14:48;3.08;;;2.22;;
54145;SDS011;65909;49.422;7.738;2023-06-26T14:17:16;4.03;;;2.10;;
54145;SDS011;65909;49.422;7.738;2023-06-26T14:19:41;7.03;;;2.45;;
54145;SDS011;65909;49.422;7.738;2023-06-26T14:22:07;3.40;;;2.45;;
54145;SDS011;65909;49.422;7.738;2023-06-26T14:27:43;3.53;;;2.13;;
54145;SDS011;65909;49.422;7.738;2023-06-26T14:30:08;3.42;;;1.92;;
54145;SDS011;65909;49.422;7.738;2023-06-26T14:32:34;4.30;;;2.25;;
54145;SDS011;65909;49.422;7.738;2023-06-26T14:35:00;3.90;;;1.85;;
54145;SDS011;65909;49.422;7.738;2023-06-26T14:37:26;4.47;;;1.88;;
54145;SDS011;65909;49.422;7.738;2023-06-26T14:40:03;3.55;;;1.92;;
54145;SDS011;65909;49.422;7.738;2023-06-26T14:42:29;4.10;;;1.88;;
54145;SDS011;65909;49.422;7.738;2023-06-26T14:44:54;4.32;;;1.98;;
54145;SDS011;65909;49.422;7.738;2023-06-26T14:47:20;2.95;;;1.77;;
54145;SDS011;65909;49.422;7.738;2023-06-26T14:49:45;3.17;;;1.80;;
54145;SDS011;65909;49.422;7.738;2023-06-26T14:52:11;4.00;;;1.58;;
54145;SDS011;65909;49.422;7.738;2023-06-26T14:54:36;3.85;;;1.55;;
54145;SDS011;65909;49.422;7.738;2023-06-26T14:57:06;3.70;;;1.80;;
54145;SDS011;65909;49.422;7.738;2023-06-26T14:59:31;3.83;;;1.55;;
54145;SDS011;65909;49.422;7.738;2023-06-26T15:01:57;7.05;;;1.58;;
54145;SDS011;65909;49.422;7.738;2023-06-26T15:04:22;3.80;;;1.63;;
54145;SDS011;65909;49.422;7.738;2023-06-26T15:06:48;3.22;;;1.70;;
54145;SDS011;65909;49.422;7.738;2023-06-26T15:09:13;3.03;;;1.45;;
54145;SDS011;65909;49.422;7.738;2023-06-26T15:11:39;6.28;;;1.58;;
54145;SDS011;65909;49.422;7.738;2023-06-26T15:14:04;5.22;;;1.58;;
54145;SDS011;65909;49.422;7.738;2023-06-26T15:16:30;1.98;;;1.30;;
54145;SDS011;65909;49.422;7.738;2023-06-26T15:18:55;3.88;;;1.52;;
54145;SDS011;65909;49.422;7.738;2023-06-26T15:24:25;2.30;;;1.30;;
54145;SDS011;65909;49.422;7.738;2023-06-26T15:26:50;2.63;;;1.48;;
54145;SDS011;65909;49.422;7.738;2023-06-26T15:29:16;5.38;;;1.30;;
54145;SDS011;65909;49.422;7.738;2023-06-26T15:31:42;4.35;;;1.50;;
54145;SDS011;65909;49.422;7.738;2023-06-26T15:37:30;4.55;;;1.40;;
54145;SDS011;65909;49.422;7.738;2023-06-26T15:39:55;2.60;;;1.58;;
54145;SDS011;65909;49.422;7.738;2023-06-26T15:45:23;4.85;;;1.30;;
54145;SDS011;65909;49.422;7.738;2023-06-26T15:51:13;4.13;;;1.58;;
54145;SDS011;65909;49.422;7.738;2023-06-26T15:53:42;3.97;;;1.48;;
54145;SDS011;65909;49.422;7.738;2023-06-26T15:59:14;3.38;;;1.80;;
54145;SDS011;65909;49.422;7.738;2023-06-26T16:01:43;4.82;;;1.73;;
54145;SDS011;65909;49.422;7.738;2023-06-26T16:04:10;3.15;;;1.33;;
54145;SDS011;65909;49.422;7.738;2023-06-26T16:06:36;6.05;;;1.60;;
54145;SDS011;65909;49.422;7.738;2023-06-26T16:09:07;5.43;;;1.52;;
54145;SDS011;65909;49.422;7.738;2023-06-26T16:11:33;3.63;;;1.70;;
54145;SDS011;65909;49.422;7.738;2023-06-26T16:13:58;2.63;;;1.13;;
54145;SDS011;65909;49.422;7.738;2023-06-26T16:16:24;5.55;;;2.10;;
54145;SDS011;65909;49.422;7.738;2023-06-26T16:26:35;3.53;;;1.13;;
54145;SDS011;65909;49.422;7.738;2023-06-26T16:29:00;3.83;;;1.38;;
54145;SDS011;65909;49.422;7.738;2023-06-26T16:31:26;2.92;;;1.20;;
54145;SDS011;65909;49.422;7.738;2023-06-26T16:33:51;3.95;;;1.23;;
54145;SDS011;65909;49.422;7.738;2023-06-26T16:36:17;2.85;;;1.50;;
54145;SDS011;65909;49.422;7.738;2023-06-26T16:38:42;2.00;;;1.27;;
54145;SDS011;65909;49.422;7.738;2023-06-26T16:41:08;5.45;;;1.40;;
54145;SDS011;65909;49.422;7.738;2023-06-26T16:43:34;3.72;;;1.50;;